sensor_id;sensor_type;location;lat;lon;timestamp;temperature;humidity
36352;DHT22;22382;44.768;17.206;2023-11-19T00:00:58;1.10;99.90
36352;DHT22;22382;44.768;17.206;2023-11-19T00:03:25;1.10;99.90
36352;DHT22;22382;44.768;17.206;2023-11-19T00:05:52;1.10;99.90
36352;DHT22;22382;44.768;17.206;2023-11-19T00:08:20;1.10;99.90
36352;DHT22;22382;44.768;17.206;2023-11-19T00:10:47;1.10;99.90
36352;DHT22;22382;44.768;17.206;2023-11-19T00:13:14;1.10;99.90
36352;DHT22;22382;44.768;17.206;2023-11-19T00:15:41;1.00;99.90
36352;DHT22;22382;44.768;17.206;2023-11-19T00:18:08;1.00;99.90
36352;DHT22;22382;44.768;17.206;2023-11-19T00:20:36;1.00;99.90
36352;DHT22;22382;44.768;17.206;2023-11-19T00:23:03;1.00;99.90
36352;DHT22;22382;44.768;17.206;2023-11-19T00:25:30;1.00;99.90
36352;DHT22;22382;44.768;17.206;2023-11-19T00:27:57;0.90;99.90
36352;DHT22;22382;44.768;17.206;2023-11-19T00:30:24;0.90;99.90
36352;DHT22;22382;44.768;17.206;2023-11-19T00:32:51;0.90;99.90
36352;DHT22;22382;44.768;17.206;2023-11-19T00:35:19;0.90;99.90
36352;DHT22;22382;44.768;17.206;2023-11-19T00:37:46;1.00;99.90
36352;DHT22;22382;44.768;17.206;2023-11-19T00:40:14;1.00;99.90
36352;DHT22;22382;44.768;17.206;2023-11-19T00:42:43;1.00;99.90
36352;DHT22;22382;44.768;17.206;2023-11-19T00:45:10;1.10;99.90
36352;DHT22;22382;44.768;17.206;2023-11-19T00:47:39;1.20;99.90
36352;DHT22;22382;44.768;17.206;2023-11-19T00:50:07;1.30;99.90
36352;DHT22;22382;44.768;17.206;2023-11-19T00:52:38;1.30;99.90
36352;DHT22;22382;44.768;17.206;2023-11-19T00:55:06;1.40;99.90
36352;DHT22;22382;44.768;17.206;2023-11-19T00:57:34;1.50;99.90
36352;DHT22;22382;44.768;17.206;2023-11-19T01:00:03;1.60;99.90
36352;DHT22;22382;44.768;17.206;2023-11-19T01:02:41;1.70;99.90
36352;DHT22;22382;44.768;17.206;2023-11-19T01:05:09;1.70;99.90
36352;DHT22;22382;44.768;17.206;2023-11-19T01:07:36;1.80;99.90
36352;DHT22;22382;44.768;17.206;2023-11-19T01:10:04;1.90;99.90
36352;DHT22;22382;44.768;17.206;2023-11-19T01:12:31;1.90;99.90
36352;DHT22;22382;44.768;17.206;2023-11-19T01:14:58;2.00;99.90
36352;DHT22;22382;44.768;17.206;2023-11-19T01:17:25;2.10;99.90
36352;DHT22;22382;44.768;17.206;2023-11-19T01:19:53;2.10;99.90
36352;DHT22;22382;44.768;17.206;2023-11-19T01:22:20;2.20;99.90
36352;DHT22;22382;44.768;17.206;2023-11-19T01:24:47;2.30;99.90
36352;DHT22;22382;44.768;17.206;2023-11-19T01:27:14;2.30;99.90
36352;DHT22;22382;44.768;17.206;2023-11-19T01:29:42;2.40;99.90
36352;DHT22;22382;44.768;17.206;2023-11-19T01:32:10;2.50;99.90
36352;DHT22;22382;44.768;17.206;2023-11-19T01:34:37;2.50;99.90
36352;DHT22;22382;44.768;17.206;2023-11-19T01:37:04;2.50;99.90
36352;DHT22;22382;44.768;17.206;2023-11-19T01:39:31;2.50;99.90
36352;DHT22;22382;44.768;17.206;2023-11-19T01:41:58;2.50;99.90
36352;DHT22;22382;44.768;17.206;2023-11-19T01:44:25;2.50;99.90
36352;DHT22;22382;44.768;17.206;2023-11-19T01:46:53;2.40;99.90
36352;DHT22;22382;44.768;17.206;2023-11-19T01:49:20;2.30;99.90
36352;DHT22;22382;44.768;17.206;2023-11-19T01:51:48;2.30;99.90
36352;DHT22;22382;44.768;17.206;2023-11-19T01:54:17;2.30;99.90
36352;DHT22;22382;44.768;17.206;2023-11-19T01:56:44;2.30;99.90
36352;DHT22;22382;44.768;17.206;2023-11-19T01:59:12;2.30;99.90
36352;DHT22;22382;44.768;17.206;2023-11-19T02:01:41;2.30;99.90
36352;DHT22;22382;44.768;17.206;2023-11-19T02:04:09;2.30;99.90
36352;DHT22;22382;44.768;17.206;2023-11-19T02:06:40;2.30;99.90
36352;DHT22;22382;44.768;17.206;2023-11-19T02:09:10;2.20;99.90
36352;DHT22;22382;44.768;17.206;2023-11-19T02:11:40;2.20;99.90
36352;DHT22;22382;44.768;17.206;2023-11-19T02:14:07;2.20;99.90
36352;DHT22;22382;44.768;17.206;2023-11-19T02:16:34;2.10;99.90
36352;DHT22;22382;44.768;17.206;2023-11-19T02:19:02;2.10;99.90
36352;DHT22;22382;44.768;17.206;2023-11-19T02:21:30;2.00;99.90
36352;DHT22;22382;44.768;17.206;2023-11-19T02:23:57;1.90;99.90
36352;DHT22;22382;44.768;17.206;2023-11-19T02:29:14;1.70;99.90
36352;DHT22;22382;44.768;17.206;2023-11-19T02:31:41;1.70;99.90
36352;DHT22;22382;44.768;17.206;2023-11-19T02:34:10;1.60;99.90
36352;DHT22;22382;44.768;17.206;2023-11-19T02:36:39;1.60;99.90
36352;DHT22;22382;44.768;17.206;2023-11-19T02:39:08;1.50;99.90
36352;DHT22;22382;44.768;17.206;2023-11-19T02:41:39;1.50;99.90
36352;DHT22;22382;44.768;17.206;2023-11-19T02:44:07;1.50;99.90
36352;DHT22;22382;44.768;17.206;2023-11-19T02:46:34;1.40;99.90
36352;DHT22;22382;44.768;17.206;2023-11-19T02:49:01;1.40;99.90
36352;DHT22;22382;44.768;17.206;2023-11-19T02:51:28;1.40;99.90
36352;DHT22;22382;44.768;17.206;2023-11-19T02:53:57;1.40;99.90
36352;DHT22;22382;44.768;17.206;2023-11-19T02:56:25;1.30;99.90
36352;DHT22;22382;44.768;17.206;2023-11-19T02:58:53;1.20;99.90
36352;DHT22;22382;44.768;17.206;2023-11-19T03:01:24;1.20;99.90
36352;DHT22;22382;44.768;17.206;2023-11-19T03:03:59;1.20;99.90
36352;DHT22;22382;44.768;17.206;2023-11-19T03:06:29;1.20;99.90
36352;DHT22;22382;44.768;17.206;2023-11-19T03:08:56;1.10;99.90
36352;DHT22;22382;44.768;17.206;2023-11-19T03:11:23;1.20;99.90
36352;DHT22;22382;44.768;17.206;2023-11-19T03:13:51;1.20;99.90
36352;DHT22;22382;44.768;17.206;2023-11-19T03:16:18;1.20;99.90
36352;DHT22;22382;44.768;17.206;2023-11-19T03:18:46;1.20;99.90
36352;DHT22;22382;44.768;17.206;2023-11-19T03:21:13;1.10;99.90
36352;DHT22;22382;44.768;17.206;2023-11-19T03:23:40;1.20;99.90
36352;DHT22;22382;44.768;17.206;2023-11-19T03:26:07;1.10;99.90
36352;DHT22;22382;44.768;17.206;2023-11-19T03:28:37;1.10;99.90
36352;DHT22;22382;44.768;17.206;2023-11-19T03:31:07;1.10;99.90
36352;DHT22;22382;44.768;17.206;2023-11-19T03:33:36;1.10;99.90
36352;DHT22;22382;44.768;17.206;2023-11-19T03:36:05;1.10;99.90
36352;DHT22;22382;44.768;17.206;2023-11-19T03:38:32;1.10;99.90
36352;DHT22;22382;44.768;17.206;2023-11-19T03:40:59;1.10;99.90
36352;DHT22;22382;44.768;17.206;2023-11-19T03:43:27;1.00;99.90
36352;DHT22;22382;44.768;17.206;2023-11-19T03:45:54;1.00;99.90
36352;DHT22;22382;44.768;17.206;2023-11-19T03:48:21;1.00;99.90
36352;DHT22;22382;44.768;17.206;2023-11-19T03:50:49;1.00;99.90
36352;DHT22;22382;44.768;17.206;2023-11-19T03:53:16;1.00;99.90
36352;DHT22;22382;44.768;17.206;2023-11-19T03:55:45;1.00;99.90
36352;DHT22;22382;44.768;17.206;2023-11-19T03:58:12;1.00;99.90
36352;DHT22;22382;44.768;17.206;2023-11-19T04:00:39;1.00;99.90
36352;DHT22;22382;44.768;17.206;2023-11-19T04:03:07;1.00;99.90
36352;DHT22;22382;44.768;17.206;2023-11-19T04:05:34;1.00;99.90
36352;DHT22;22382;44.768;17.206;2023-11-19T04:08:01;1.00;99.90
36352;DHT22;22382;44.768;17.206;2023-11-19T04:10:29;1.00;99.90
36352;DHT22;22382;44.768;17.206;2023-11-19T04:12:56;1.00;99.90
36352;DHT22;22382;44.768;17.206;2023-11-19T04:15:23;0.90;99.90
36352;DHT22;22382;44.768;17.206;2023-11-19T04:17:51;0.90;99.90
36352;DHT22;22382;44.768;17.206;2023-11-19T04:20:18;0.90;99.90
36352;DHT22;22382;44.768;17.206;2023-11-19T04:22:45;0.90;99.90
36352;DHT22;22382;44.768;17.206;2023-11-19T04:25:12;0.90;99.90
36352;DHT22;22382;44.768;17.206;2023-11-19T04:27:41;0.90;99.90
36352;DHT22;22382;44.768;17.206;2023-11-19T04:30:08;0.90;99.90
36352;DHT22;22382;44.768;17.206;2023-11-19T04:32:38;0.90;99.90
36352;DHT22;22382;44.768;17.206;2023-11-19T04:35:06;0.80;99.90
36352;DHT22;22382;44.768;17.206;2023-11-19T04:37:33;0.80;99.90
36352;DHT22;22382;44.768;17.206;2023-11-19T04:40:02;0.80;99.90
36352;DHT22;22382;44.768;17.206;2023-11-19T04:42:30;0.80;99.90
36352;DHT22;22382;44.768;17.206;2023-11-19T04:44:57;0.80;99.90
36352;DHT22;22382;44.768;17.206;2023-11-19T04:47:24;0.70;99.90
36352;DHT22;22382;44.768;17.206;2023-11-19T04:49:51;0.80;99.90
36352;DHT22;22382;44.768;17.206;2023-11-19T04:52:18;0.70;99.90
36352;DHT22;22382;44.768;17.206;2023-11-19T04:54:46;0.70;99.90
36352;DHT22;22382;44.768;17.206;2023-11-19T04:57:13;0.70;99.90
36352;DHT22;22382;44.768;17.206;2023-11-19T04:59:40;0.60;99.90
36352;DHT22;22382;44.768;17.206;2023-11-19T05:02:09;0.60;99.90
36352;DHT22;22382;44.768;17.206;2023-11-19T05:04:36;0.60;99.90
36352;DHT22;22382;44.768;17.206;2023-11-19T05:07:06;0.70;99.90
36352;DHT22;22382;44.768;17.206;2023-11-19T05:09:34;0.70;99.90
36352;DHT22;22382;44.768;17.206;2023-11-19T05:12:01;0.70;99.90
36352;DHT22;22382;44.768;17.206;2023-11-19T05:14:29;0.70;99.90
36352;DHT22;22382;44.768;17.206;2023-11-19T05:16:56;0.80;99.90
36352;DHT22;22382;44.768;17.206;2023-11-19T05:19:23;0.80;99.90
36352;DHT22;22382;44.768;17.206;2023-11-19T05:21:51;0.80;99.90
36352;DHT22;22382;44.768;17.206;2023-11-19T05:24:19;0.80;99.90
36352;DHT22;22382;44.768;17.206;2023-11-19T05:26:46;0.80;99.90
36352;DHT22;22382;44.768;17.206;2023-11-19T05:29:14;0.80;99.90
36352;DHT22;22382;44.768;17.206;2023-11-19T05:31:41;0.80;99.90
36352;DHT22;22382;44.768;17.206;2023-11-19T05:34:11;1.00;99.90
36352;DHT22;22382;44.768;17.206;2023-11-19T05:36:38;1.20;99.90
36352;DHT22;22382;44.768;17.206;2023-11-19T05:39:06;1.30;99.90
36352;DHT22;22382;44.768;17.206;2023-11-19T05:41:33;1.30;99.90
36352;DHT22;22382;44.768;17.206;2023-11-19T05:44:00;1.20;99.90
36352;DHT22;22382;44.768;17.206;2023-11-19T05:46:28;1.10;99.90
36352;DHT22;22382;44.768;17.206;2023-11-19T05:48:56;1.10;99.90
36352;DHT22;22382;44.768;17.206;2023-11-19T05:51:23;1.10;99.90
36352;DHT22;22382;44.768;17.206;2023-11-19T05:53:51;1.10;99.90
36352;DHT22;22382;44.768;17.206;2023-11-19T05:56:19;1.00;99.90
36352;DHT22;22382;44.768;17.206;2023-11-19T05:58:48;1.00;99.90
36352;DHT22;22382;44.768;17.206;2023-11-19T06:01:18;1.00;99.90
36352;DHT22;22382;44.768;17.206;2023-11-19T06:03:45;1.10;99.90
36352;DHT22;22382;44.768;17.206;2023-11-19T06:06:16;1.00;99.90
36352;DHT22;22382;44.768;17.206;2023-11-19T06:08:44;1.00;99.90
36352;DHT22;22382;44.768;17.206;2023-11-19T06:11:11;1.00;99.90
36352;DHT22;22382;44.768;17.206;2023-11-19T06:13:46;1.10;99.90
36352;DHT22;22382;44.768;17.206;2023-11-19T06:16:14;1.10;99.90
36352;DHT22;22382;44.768;17.206;2023-11-19T06:18:42;1.10;99.90
36352;DHT22;22382;44.768;17.206;2023-11-19T06:21:11;1.20;99.90
36352;DHT22;22382;44.768;17.206;2023-11-19T06:23:39;1.20;99.90
36352;DHT22;22382;44.768;17.206;2023-11-19T06:26:06;1.20;99.90
36352;DHT22;22382;44.768;17.206;2023-11-19T06:28:33;1.30;99.90
36352;DHT22;22382;44.768;17.206;2023-11-19T06:31:00;1.40;99.90
36352;DHT22;22382;44.768;17.206;2023-11-19T06:33:28;1.60;99.90
36352;DHT22;22382;44.768;17.206;2023-11-19T06:35:55;1.70;99.90
36352;DHT22;22382;44.768;17.206;2023-11-19T06:38:22;1.90;99.90
36352;DHT22;22382;44.768;17.206;2023-11-19T06:40:49;2.10;99.90
36352;DHT22;22382;44.768;17.206;2023-11-19T06:43:20;2.30;99.90
36352;DHT22;22382;44.768;17.206;2023-11-19T06:45:48;2.50;99.90
36352;DHT22;22382;44.768;17.206;2023-11-19T06:48:15;2.70;99.90
36352;DHT22;22382;44.768;17.206;2023-11-19T06:50:43;2.80;99.90
36352;DHT22;22382;44.768;17.206;2023-11-19T06:53:10;2.80;99.90
36352;DHT22;22382;44.768;17.206;2023-11-19T06:55:37;2.60;99.90
36352;DHT22;22382;44.768;17.206;2023-11-19T06:58:05;2.50;99.90
36352;DHT22;22382;44.768;17.206;2023-11-19T07:00:33;2.70;99.90
36352;DHT22;22382;44.768;17.206;2023-11-19T07:03:03;2.70;99.90
36352;DHT22;22382;44.768;17.206;2023-11-19T07:05:30;2.60;99.90
36352;DHT22;22382;44.768;17.206;2023-11-19T07:07:58;2.60;99.90
36352;DHT22;22382;44.768;17.206;2023-11-19T07:10:25;2.80;99.90
36352;DHT22;22382;44.768;17.206;2023-11-19T07:12:52;2.90;99.90
36352;DHT22;22382;44.768;17.206;2023-11-19T07:15:19;3.00;99.90
36352;DHT22;22382;44.768;17.206;2023-11-19T07:17:46;3.20;99.90
36352;DHT22;22382;44.768;17.206;2023-11-19T07:20:28;3.20;99.90
36352;DHT22;22382;44.768;17.206;2023-11-19T07:22:55;3.20;99.90
36352;DHT22;22382;44.768;17.206;2023-11-19T07:25:24;3.30;99.90
36352;DHT22;22382;44.768;17.206;2023-11-19T07:27:52;3.40;99.90
36352;DHT22;22382;44.768;17.206;2023-11-19T07:30:19;3.60;99.90
36352;DHT22;22382;44.768;17.206;2023-11-19T07:32:47;3.60;99.90
36352;DHT22;22382;44.768;17.206;2023-11-19T07:35:15;3.70;99.90
36352;DHT22;22382;44.768;17.206;2023-11-19T07:37:45;3.90;99.90
36352;DHT22;22382;44.768;17.206;2023-11-19T07:40:14;3.90;99.90
36352;DHT22;22382;44.768;17.206;2023-11-19T07:42:41;3.90;99.90
36352;DHT22;22382;44.768;17.206;2023-11-19T07:45:09;4.00;99.90
36352;DHT22;22382;44.768;17.206;2023-11-19T07:47:36;4.10;99.90
36352;DHT22;22382;44.768;17.206;2023-11-19T07:50:03;4.30;99.90
36352;DHT22;22382;44.768;17.206;2023-11-19T07:52:31;4.40;99.90
36352;DHT22;22382;44.768;17.206;2023-11-19T07:54:58;4.40;99.90
36352;DHT22;22382;44.768;17.206;2023-11-19T07:57:25;4.50;99.90
36352;DHT22;22382;44.768;17.206;2023-11-19T07:59:54;4.70;99.90
36352;DHT22;22382;44.768;17.206;2023-11-19T08:02:21;4.90;99.90
36352;DHT22;22382;44.768;17.206;2023-11-19T08:04:50;4.90;99.90
36352;DHT22;22382;44.768;17.206;2023-11-19T08:07:19;5.10;99.90
36352;DHT22;22382;44.768;17.206;2023-11-19T08:09:46;5.30;99.90
36352;DHT22;22382;44.768;17.206;2023-11-19T08:12:14;5.40;99.90
36352;DHT22;22382;44.768;17.206;2023-11-19T08:14:44;5.60;99.90
36352;DHT22;22382;44.768;17.206;2023-11-19T08:17:11;5.70;99.90
36352;DHT22;22382;44.768;17.206;2023-11-19T08:19:39;5.90;99.90
36352;DHT22;22382;44.768;17.206;2023-11-19T08:22:06;6.10;99.90
36352;DHT22;22382;44.768;17.206;2023-11-19T08:24:33;6.20;99.90
36352;DHT22;22382;44.768;17.206;2023-11-19T08:27:00;6.10;99.90
36352;DHT22;22382;44.768;17.206;2023-11-19T08:29:29;6.50;99.90
36352;DHT22;22382;44.768;17.206;2023-11-19T08:31:57;6.80;99.90
36352;DHT22;22382;44.768;17.206;2023-11-19T08:34:24;7.00;99.90
36352;DHT22;22382;44.768;17.206;2023-11-19T08:36:52;7.00;99.90
36352;DHT22;22382;44.768;17.206;2023-11-19T08:39:21;7.10;99.90
36352;DHT22;22382;44.768;17.206;2023-11-19T08:41:49;7.00;99.90
36352;DHT22;22382;44.768;17.206;2023-11-19T08:44:16;7.10;99.90
36352;DHT22;22382;44.768;17.206;2023-11-19T08:46:50;7.10;99.90
36352;DHT22;22382;44.768;17.206;2023-11-19T08:49:18;7.20;99.90
36352;DHT22;22382;44.768;17.206;2023-11-19T08:51:45;7.30;99.90
36352;DHT22;22382;44.768;17.206;2023-11-19T08:54:13;7.50;99.90
36352;DHT22;22382;44.768;17.206;2023-11-19T08:56:41;7.80;99.90
36352;DHT22;22382;44.768;17.206;2023-11-19T08:59:08;8.00;99.90
36352;DHT22;22382;44.768;17.206;2023-11-19T09:01:35;8.10;99.90
36352;DHT22;22382;44.768;17.206;2023-11-19T09:04:03;8.60;99.90
36352;DHT22;22382;44.768;17.206;2023-11-19T09:06:31;8.70;99.90
36352;DHT22;22382;44.768;17.206;2023-11-19T09:08:58;8.70;99.60
36352;DHT22;22382;44.768;17.206;2023-11-19T09:11:29;8.60;99.90
36352;DHT22;22382;44.768;17.206;2023-11-19T09:13:57;8.40;99.90
36352;DHT22;22382;44.768;17.206;2023-11-19T09:16:24;8.30;99.90
36352;DHT22;22382;44.768;17.206;2023-11-19T09:18:52;8.40;99.90
36352;DHT22;22382;44.768;17.206;2023-11-19T09:21:19;8.60;99.90
36352;DHT22;22382;44.768;17.206;2023-11-19T09:23:46;8.70;99.90
36352;DHT22;22382;44.768;17.206;2023-11-19T09:26:16;8.70;99.60
36352;DHT22;22382;44.768;17.206;2023-11-19T09:28:43;8.50;99.70
36352;DHT22;22382;44.768;17.206;2023-11-19T09:31:17;8.60;99.90
36352;DHT22;22382;44.768;17.206;2023-11-19T09:33:45;8.60;99.70
36352;DHT22;22382;44.768;17.206;2023-11-19T09:36:13;8.70;99.60
36352;DHT22;22382;44.768;17.206;2023-11-19T09:38:44;8.90;99.30
36352;DHT22;22382;44.768;17.206;2023-11-19T09:41:11;9.10;99.20
36352;DHT22;22382;44.768;17.206;2023-11-19T09:43:40;9.10;99.10
36352;DHT22;22382;44.768;17.206;2023-11-19T09:46:13;9.20;98.70
36352;DHT22;22382;44.768;17.206;2023-11-19T09:48:43;9.30;98.10
36352;DHT22;22382;44.768;17.206;2023-11-19T09:51:14;9.50;97.40
36352;DHT22;22382;44.768;17.206;2023-11-19T09:53:41;9.50;96.10
36352;DHT22;22382;44.768;17.206;2023-11-19T09:56:08;9.60;95.60
36352;DHT22;22382;44.768;17.206;2023-11-19T09:58:38;9.50;94.80
36352;DHT22;22382;44.768;17.206;2023-11-19T10:01:05;9.60;94.90
36352;DHT22;22382;44.768;17.206;2023-11-19T10:03:37;9.70;94.00
36352;DHT22;22382;44.768;17.206;2023-11-19T10:06:08;9.90;93.70
36352;DHT22;22382;44.768;17.206;2023-11-19T10:08:38;10.00;92.80
36352;DHT22;22382;44.768;17.206;2023-11-19T10:11:07;10.30;92.20
36352;DHT22;22382;44.768;17.206;2023-11-19T10:13:36;10.50;91.40
36352;DHT22;22382;44.768;17.206;2023-11-19T10:16:12;10.50;90.90
36352;DHT22;22382;44.768;17.206;2023-11-19T10:18:45;10.60;91.20
36352;DHT22;22382;44.768;17.206;2023-11-19T10:21:13;10.60;91.10
36352;DHT22;22382;44.768;17.206;2023-11-19T10:23:52;10.30;90.60
36352;DHT22;22382;44.768;17.206;2023-11-19T10:26:20;10.40;92.00
36352;DHT22;22382;44.768;17.206;2023-11-19T10:28:48;10.50;91.50
36352;DHT22;22382;44.768;17.206;2023-11-19T10:31:16;10.30;91.70
36352;DHT22;22382;44.768;17.206;2023-11-19T10:33:47;10.40;91.90
36352;DHT22;22382;44.768;17.206;2023-11-19T10:36:14;10.50;91.60
36352;DHT22;22382;44.768;17.206;2023-11-19T10:38:52;10.60;91.60
36352;DHT22;22382;44.768;17.206;2023-11-19T10:41:30;10.60;92.20
36352;DHT22;22382;44.768;17.206;2023-11-19T10:43:58;10.70;90.30
36352;DHT22;22382;44.768;17.206;2023-11-19T10:46:39;10.90;90.20
36352;DHT22;22382;44.768;17.206;2023-11-19T10:49:10;11.00;90.00
36352;DHT22;22382;44.768;17.206;2023-11-19T10:51:43;11.10;90.40
36352;DHT22;22382;44.768;17.206;2023-11-19T10:54:15;11.30;87.80
36352;DHT22;22382;44.768;17.206;2023-11-19T10:56:52;11.40;90.00
36352;DHT22;22382;44.768;17.206;2023-11-19T10:59:22;11.70;91.10
36352;DHT22;22382;44.768;17.206;2023-11-19T11:01:53;12.00;91.40
36352;DHT22;22382;44.768;17.206;2023-11-19T11:04:25;12.00;87.60
36352;DHT22;22382;44.768;17.206;2023-11-19T11:06:55;12.20;89.20
36352;DHT22;22382;44.768;17.206;2023-11-19T11:09:23;12.30;85.10
36352;DHT22;22382;44.768;17.206;2023-11-19T11:11:51;12.40;84.40
36352;DHT22;22382;44.768;17.206;2023-11-19T11:14:20;12.40;84.80
36352;DHT22;22382;44.768;17.206;2023-11-19T11:16:49;12.40;84.30
36352;DHT22;22382;44.768;17.206;2023-11-19T11:19:18;12.50;81.80
36352;DHT22;22382;44.768;17.206;2023-11-19T11:21:50;12.40;81.90
36352;DHT22;22382;44.768;17.206;2023-11-19T11:35:58;12.40;80.80
36352;DHT22;22382;44.768;17.206;2023-11-19T11:38:30;12.50;80.40
36352;DHT22;22382;44.768;17.206;2023-11-19T11:41:22;12.70;79.80
36352;DHT22;22382;44.768;17.206;2023-11-19T11:43:55;13.00;78.60
36352;DHT22;22382;44.768;17.206;2023-11-19T11:49:08;12.90;77.10
36352;DHT22;22382;44.768;17.206;2023-11-19T11:59:45;13.40;80.90
36352;DHT22;22382;44.768;17.206;2023-11-19T12:02:14;13.30;79.10
36352;DHT22;22382;44.768;17.206;2023-11-19T12:04:47;13.30;81.50
36352;DHT22;22382;44.768;17.206;2023-11-19T12:07:22;13.40;79.80
36352;DHT22;22382;44.768;17.206;2023-11-19T12:10:08;13.50;80.30
36352;DHT22;22382;44.768;17.206;2023-11-19T12:12:39;13.60;77.30
36352;DHT22;22382;44.768;17.206;2023-11-19T12:15:08;13.60;76.10
36352;DHT22;22382;44.768;17.206;2023-11-19T12:17:51;13.60;76.80
36352;DHT22;22382;44.768;17.206;2023-11-19T12:20:21;13.60;80.10
36352;DHT22;22382;44.768;17.206;2023-11-19T12:22:53;13.70;81.40
36352;DHT22;22382;44.768;17.206;2023-11-19T12:25:20;13.80;76.90
36352;DHT22;22382;44.768;17.206;2023-11-19T12:27:50;13.80;75.60
36352;DHT22;22382;44.768;17.206;2023-11-19T12:30:22;13.80;74.20
36352;DHT22;22382;44.768;17.206;2023-11-19T12:32:51;13.90;74.60
36352;DHT22;22382;44.768;17.206;2023-11-19T12:35:21;13.90;74.10
36352;DHT22;22382;44.768;17.206;2023-11-19T12:37:49;14.00;73.60
36352;DHT22;22382;44.768;17.206;2023-11-19T12:40:21;14.10;73.40
36352;DHT22;22382;44.768;17.206;2023-11-19T12:42:49;14.10;72.60
36352;DHT22;22382;44.768;17.206;2023-11-19T12:45:17;14.00;72.50
36352;DHT22;22382;44.768;17.206;2023-11-19T12:47:46;13.90;72.10
36352;DHT22;22382;44.768;17.206;2023-11-19T12:50:18;13.90;71.60
36352;DHT22;22382;44.768;17.206;2023-11-19T12:52:55;13.90;73.10
36352;DHT22;22382;44.768;17.206;2023-11-19T12:55:30;13.80;73.50
36352;DHT22;22382;44.768;17.206;2023-11-19T12:57:57;13.90;75.20
36352;DHT22;22382;44.768;17.206;2023-11-19T13:00:26;14.00;72.70
36352;DHT22;22382;44.768;17.206;2023-11-19T13:02:55;14.10;73.30
36352;DHT22;22382;44.768;17.206;2023-11-19T13:08:07;14.10;74.90
36352;DHT22;22382;44.768;17.206;2023-11-19T13:10:52;14.20;73.30
36352;DHT22;22382;44.768;17.206;2023-11-19T13:13:20;14.20;75.70
36352;DHT22;22382;44.768;17.206;2023-11-19T13:15:47;14.30;79.60
36352;DHT22;22382;44.768;17.206;2023-11-19T13:18:16;14.30;73.30
36352;DHT22;22382;44.768;17.206;2023-11-19T13:20:44;14.20;73.30
36352;DHT22;22382;44.768;17.206;2023-11-19T13:23:11;14.20;73.60
36352;DHT22;22382;44.768;17.206;2023-11-19T13:25:38;14.10;72.50
36352;DHT22;22382;44.768;17.206;2023-11-19T13:28:05;13.90;71.50
36352;DHT22;22382;44.768;17.206;2023-11-19T13:30:34;13.90;72.60
36352;DHT22;22382;44.768;17.206;2023-11-19T13:33:01;13.80;72.40
36352;DHT22;22382;44.768;17.206;2023-11-19T13:35:28;13.70;72.40
36352;DHT22;22382;44.768;17.206;2023-11-19T13:37:55;13.70;74.50
36352;DHT22;22382;44.768;17.206;2023-11-19T13:40:22;13.60;73.60
36352;DHT22;22382;44.768;17.206;2023-11-19T13:42:51;13.60;76.20
36352;DHT22;22382;44.768;17.206;2023-11-19T13:45:18;13.50;73.20
36352;DHT22;22382;44.768;17.206;2023-11-19T13:47:48;13.50;73.70
36352;DHT22;22382;44.768;17.206;2023-11-19T13:50:16;13.60;75.20
36352;DHT22;22382;44.768;17.206;2023-11-19T13:52:46;13.50;75.80
36352;DHT22;22382;44.768;17.206;2023-11-19T13:55:14;13.40;77.40
36352;DHT22;22382;44.768;17.206;2023-11-19T13:57:42;13.40;76.20
36352;DHT22;22382;44.768;17.206;2023-11-19T14:00:11;13.30;76.00
36352;DHT22;22382;44.768;17.206;2023-11-19T14:02:43;13.40;76.20
36352;DHT22;22382;44.768;17.206;2023-11-19T14:05:11;13.40;75.20
36352;DHT22;22382;44.768;17.206;2023-11-19T14:07:39;13.40;75.50
36352;DHT22;22382;44.768;17.206;2023-11-19T14:10:07;13.40;74.80
36352;DHT22;22382;44.768;17.206;2023-11-19T14:12:40;13.30;74.10
36352;DHT22;22382;44.768;17.206;2023-11-19T14:15:08;13.10;73.80
36352;DHT22;22382;44.768;17.206;2023-11-19T14:17:36;12.90;76.40
36352;DHT22;22382;44.768;17.206;2023-11-19T14:20:04;12.80;77.30
36352;DHT22;22382;44.768;17.206;2023-11-19T14:22:41;12.70;78.50
36352;DHT22;22382;44.768;17.206;2023-11-19T14:25:09;12.70;78.50
36352;DHT22;22382;44.768;17.206;2023-11-19T14:27:38;12.70;78.80
36352;DHT22;22382;44.768;17.206;2023-11-19T14:30:06;12.60;78.10
36352;DHT22;22382;44.768;17.206;2023-11-19T14:32:38;12.60;80.30
36352;DHT22;22382;44.768;17.206;2023-11-19T14:35:07;12.60;80.30
36352;DHT22;22382;44.768;17.206;2023-11-19T14:37:34;12.70;80.80
36352;DHT22;22382;44.768;17.206;2023-11-19T14:40:01;12.60;81.00
36352;DHT22;22382;44.768;17.206;2023-11-19T14:42:31;12.60;82.20
36352;DHT22;22382;44.768;17.206;2023-11-19T14:44:59;12.50;82.50
36352;DHT22;22382;44.768;17.206;2023-11-19T14:47:26;12.40;85.00
36352;DHT22;22382;44.768;17.206;2023-11-19T14:49:53;12.30;87.80
36352;DHT22;22382;44.768;17.206;2023-11-19T14:52:20;12.20;90.30
36352;DHT22;22382;44.768;17.206;2023-11-19T14:54:48;12.00;90.20
36352;DHT22;22382;44.768;17.206;2023-11-19T14:57:15;11.90;90.70
36352;DHT22;22382;44.768;17.206;2023-11-19T14:59:42;11.80;91.00
36352;DHT22;22382;44.768;17.206;2023-11-19T15:02:09;11.70;91.80
36352;DHT22;22382;44.768;17.206;2023-11-19T15:04:37;11.50;92.40
36352;DHT22;22382;44.768;17.206;2023-11-19T15:07:04;11.40;92.80
36352;DHT22;22382;44.768;17.206;2023-11-19T15:09:32;11.20;93.10
36352;DHT22;22382;44.768;17.206;2023-11-19T15:12:00;11.10;93.30
36352;DHT22;22382;44.768;17.206;2023-11-19T15:14:27;10.90;94.00
36352;DHT22;22382;44.768;17.206;2023-11-19T15:16:55;10.80;94.20
36352;DHT22;22382;44.768;17.206;2023-11-19T15:19:23;10.60;94.40
36352;DHT22;22382;44.768;17.206;2023-11-19T15:21:50;10.50;95.00
36352;DHT22;22382;44.768;17.206;2023-11-19T15:24:17;10.30;95.70
36352;DHT22;22382;44.768;17.206;2023-11-19T15:26:44;10.20;97.00
36352;DHT22;22382;44.768;17.206;2023-11-19T15:29:11;10.10;97.60
36352;DHT22;22382;44.768;17.206;2023-11-19T15:31:40;10.00;98.30
36352;DHT22;22382;44.768;17.206;2023-11-19T15:34:07;9.90;98.90
36352;DHT22;22382;44.768;17.206;2023-11-19T15:36:35;9.80;99.60
36352;DHT22;22382;44.768;17.206;2023-11-19T15:39:03;9.70;99.90
36352;DHT22;22382;44.768;17.206;2023-11-19T15:41:31;9.60;99.90
36352;DHT22;22382;44.768;17.206;2023-11-19T15:43:59;9.50;99.90
36352;DHT22;22382;44.768;17.206;2023-11-19T15:46:27;9.40;99.90
36352;DHT22;22382;44.768;17.206;2023-11-19T15:48:54;9.30;99.90
36352;DHT22;22382;44.768;17.206;2023-11-19T15:51:21;9.30;99.90
36352;DHT22;22382;44.768;17.206;2023-11-19T15:53:48;9.30;99.90
36352;DHT22;22382;44.768;17.206;2023-11-19T15:56:15;9.20;99.90
36352;DHT22;22382;44.768;17.206;2023-11-19T15:58:42;9.10;99.90
36352;DHT22;22382;44.768;17.206;2023-11-19T16:01:10;9.10;99.90